Time;durP1;ratioP1;P1;durP2;ratioP2;P2;SDS_P1;SDS_P2;PMS_P1;PMS_P2;Temp;Humidity;BMP_temperature;BMP_pressure;BME280_temperature;BME280_humidity;BME280_pressure;Samples;Min_cycle;Max_cycle;Signal;HPM_P1;HPM_P2
2022/10/26 00:01:34;;;;;;;18.30;8.50;;;;;;;;;;6150639;23;20005;-92
2022/10/26 00:04:02;;;;;;;18.75;8.30;;;;;;;;;;6124905;23;20017;-91
2022/10/26 00:06:28;;;;;;;20.00;9.07;;;;;;;;;;6124060;23;20444;-91
2022/10/26 00:08:55;;;;;;;25.65;9.00;;;;;;;;;;6149848;23;20096;-90
2022/10/26 00:11:21;;;;;;;21.70;7.22;;;;;;;;;;6125720;23;20024;-91
2022/10/26 00:13:48;;;;;;;19.05;8.50;;;;;;;;;;6124104;23;20040;-91
2022/10/26 00:16:21;;;;;;;15.20;8.13;;;;;;;;;;6149517;23;20010;-91
2022/10/26 00:18:48;;;;;;;24.73;8.60;;;;;;;;;;6150913;23;20421;-93
2022/10/26 00:21:14;;;;;;;21.17;9.98;;;;;;;;;;6147077;23;20065;-91
2022/10/26 00:23:43;;;;;;;26.25;9.77;;;;;;;;;;6124563;23;20017;-92
2022/10/26 00:26:09;;;;;;;23.88;8.98;;;;;;;;;;6149288;23;20037;-92
2022/10/26 00:28:36;;;;;;;24.60;8.80;;;;;;;;;;6125265;23;20067;-91
2022/10/26 00:31:02;;;;;;;23.27;8.80;;;;;;;;;;6125911;23;20033;-92
2022/10/26 00:33:29;;;;;;;23.67;8.50;;;;;;;;;;6149342;23;20385;-92
2022/10/26 00:35:55;;;;;;;25.63;8.75;;;;;;;;;;6125999;23;20285;-92
2022/10/26 00:38:21;;;;;;;19.23;8.15;;;;;;;;;;6153631;23;20417;-92
2022/10/26 00:40:47;;;;;;;16.13;8.77;;;;;;;;;;6130226;23;20014;-93
2022/10/26 00:43:34;;;;;;;22.92;8.05;;;;;;;;;;6155968;23;20005;-92
2022/10/26 00:46:01;;;;;;;23.52;9.65;;;;;;;;;;6188764;23;20072;-92
2022/10/26 00:48:29;;;;;;;20.40;8.98;;;;;;;;;;6214227;23;20014;-92
2022/10/26 00:50:56;;;;;;;18.85;7.28;;;;;;;;;;6213693;23;20017;-91
2022/10/26 00:53:22;;;;;;;17.08;9.13;;;;;;;;;;6214426;23;20041;-91
2022/10/26 00:55:49;;;;;;;16.98;8.95;;;;;;;;;;6209367;23;20040;-90
2022/10/26 00:58:16;;;;;;;24.55;9.57;;;;;;;;;;6208046;23;20337;-91
2022/10/26 01:00:42;;;;;;;19.65;9.00;;;;;;;;;;6180413;23;20016;-91
2022/10/26 01:03:09;;;;;;;17.58;8.18;;;;;;;;;;6180596;23;20031;-91
2022/10/26 01:05:37;;;;;;;18.13;8.55;;;;;;;;;;6203678;23;20095;-92
2022/10/26 01:08:03;;;;;;;20.50;8.77;;;;;;;;;;6204341;23;20408;-91
2022/10/26 01:10:29;;;;;;;27.05;8.82;;;;;;;;;;6179853;23;20024;-91
2022/10/26 01:12:58;;;;;;;18.10;7.80;;;;;;;;;;6179090;23;20020;-90
2022/10/26 01:15:29;;;;;;;20.63;8.38;;;;;;;;;;6203809;23;20009;-91
2022/10/26 01:17:57;;;;;;;21.05;8.55;;;;;;;;;;6203317;23;20041;-91
2022/10/26 01:20:38;;;;;;;29.83;9.20;;;;;;;;;;6204606;23;20009;-90
2022/10/26 01:23:04;;;;;;;20.45;8.65;;;;;;;;;;6204473;23;20005;-90
2022/10/26 01:25:36;;;;;;;20.77;8.27;;;;;;;;;;6205353;23;20001;-92
2022/10/26 01:28:06;;;;;;;21.33;9.45;;;;;;;;;;6208245;23;20436;-91
2022/10/26 01:30:47;;;;;;;26.92;8.63;;;;;;;;;;6209652;23;20017;-91
2022/10/26 01:33:37;;;;;;;25.92;9.73;;;;;;;;;;6210829;23;20333;-93
2022/10/26 01:36:20;;;;;;;21.67;10.27;;;;;;;;;;6184753;23;20008;-92
2022/10/26 01:38:58;;;;;;;18.58;9.38;;;;;;;;;;6187037;23;20094;-91
2022/10/26 01:41:27;;;;;;;24.10;9.80;;;;;;;;;;6216234;23;20065;-92
2022/10/26 01:43:55;;;;;;;28.20;10.52;;;;;;;;;;6214474;22;20429;-93
2022/10/26 01:46:23;;;;;;;25.67;10.98;;;;;;;;;;6189053;23;20012;-90
2022/10/26 01:48:51;;;;;;;21.60;10.02;;;;;;;;;;6185683;23;20429;-92
2022/10/26 01:51:18;;;;;;;23.02;10.02;;;;;;;;;;6187185;23;20015;-91
2022/10/26 01:53:45;;;;;;;32.13;11.10;;;;;;;;;;6162391;23;20506;-90
2022/10/26 01:56:20;;;;;;;22.27;10.82;;;;;;;;;;6160539;23;20024;-91
2022/10/26 01:58:53;;;;;;;26.07;10.07;;;;;;;;;;6187291;23;20387;-91
2022/10/26 02:01:27;;;;;;;22.63;10.70;;;;;;;;;;6185370;23;20009;-91
2022/10/26 02:04:12;;;;;;;27.77;11.27;;;;;;;;;;6187220;23;20009;-90
2022/10/26 02:06:57;;;;;;;28.52;11.18;;;;;;;;;;6185661;23;20016;-91
2022/10/26 02:09:29;;;;;;;21.90;10.35;;;;;;;;;;6184572;23;20375;-91
2022/10/26 02:11:55;;;;;;;20.15;10.68;;;;;;;;;;6186397;23;20119;-90
2022/10/26 02:14:28;;;;;;;20.42;10.45;;;;;;;;;;6184480;23;20020;-92
2022/10/26 02:16:57;;;;;;;25.10;10.60;;;;;;;;;;6186545;23;20005;-90
2022/10/26 02:19:32;;;;;;;23.27;11.10;;;;;;;;;;6184838;23;20008;-91
2022/10/26 02:22:19;;;;;;;25.85;10.00;;;;;;;;;;6186769;23;20004;-91
2022/10/26 02:24:53;;;;;;;26.98;10.48;;;;;;;;;;6184704;23;20000;-89
2022/10/26 02:27:25;;;;;;;24.33;10.68;;;;;;;;;;6185972;23;20005;-91
2022/10/26 02:29:52;;;;;;;22.92;10.73;;;;;;;;;;6185102;23;20008;-91
2022/10/26 02:32:19;;;;;;;28.33;11.55;;;;;;;;;;6183423;23;20054;-92
2022/10/26 02:34:46;;;;;;;24.83;11.63;;;;;;;;;;6161794;23;20018;-92
2022/10/26 02:37:15;;;;;;;30.02;11.65;;;;;;;;;;6211336;23;20008;-92
2022/10/26 02:39:43;;;;;;;27.45;11.98;;;;;;;;;;6185775;23;20466;-90
2022/10/26 02:42:09;;;;;;;30.25;11.57;;;;;;;;;;6185360;23;20000;-91
2022/10/26 02:44:42;;;;;;;37.28;12.98;;;;;;;;;;6147817;23;20021;-91
2022/10/26 02:47:18;;;;;;;27.73;11.57;;;;;;;;;;6152097;23;20318;-91
2022/10/26 02:49:48;;;;;;;28.10;11.30;;;;;;;;;;6150116;23;20468;-90
2022/10/26 02:52:20;;;;;;;30.83;12.63;;;;;;;;;;6150486;23;20013;-91
2022/10/26 02:54:55;;;;;;;33.28;13.27;;;;;;;;;;6149963;23;20099;-90
2022/10/26 02:57:28;;;;;;;33.50;12.20;;;;;;;;;;6149707;23;20020;-91
2022/10/26 02:59:55;;;;;;;31.10;12.88;;;;;;;;;;6150211;23;20110;-91
2022/10/26 03:02:22;;;;;;;33.55;11.82;;;;;;;;;;6150456;23;20442;-91
2022/10/26 03:04:49;;;;;;;31.90;11.68;;;;;;;;;;6150384;23;20013;-91
2022/10/26 03:07:22;;;;;;;25.92;11.32;;;;;;;;;;6151173;23;20041;-90
2022/10/26 03:09:48;;;;;;;25.63;12.57;;;;;;;;;;6150220;23;20043;-91
2022/10/26 03:12:14;;;;;;;27.48;13.38;;;;;;;;;;6124978;23;20033;-90
2022/10/26 03:14:40;;;;;;;28.05;12.65;;;;;;;;;;6123027;23;20367;-92
2022/10/26 03:17:07;;;;;;;28.60;12.60;;;;;;;;;;6123866;23;20014;-91
2022/10/26 03:19:33;;;;;;;29.58;13.00;;;;;;;;;;6126238;23;20041;-92
2022/10/26 03:22:00;;;;;;;25.15;13.18;;;;;;;;;;6150785;23;20033;-91
2022/10/26 03:24:26;;;;;;;35.97;13.68;;;;;;;;;;6125959;23;20265;-92
2022/10/26 03:26:52;;;;;;;29.88;13.57;;;;;;;;;;6126325;23;20116;-91
2022/10/26 03:29:18;;;;;;;42.10;14.32;;;;;;;;;;6126661;23;20055;-92
2022/10/26 03:31:44;;;;;;;27.77;13.52;;;;;;;;;;6151136;23;20014;-91
2022/10/26 03:34:10;;;;;;;38.05;13.07;;;;;;;;;;6150488;23;20014;-91
2022/10/26 03:36:36;;;;;;;32.53;13.57;;;;;;;;;;6126914;23;20097;-91
2022/10/26 03:39:02;;;;;;;36.35;13.57;;;;;;;;;;6125147;23;20010;-91
2022/10/26 03:41:28;;;;;;;32.00;13.38;;;;;;;;;;6153417;23;20434;-90
2022/10/26 03:43:54;;;;;;;33.13;13.48;;;;;;;;;;6130818;22;20009;-91
2022/10/26 03:46:20;;;;;;;33.03;13.25;;;;;;;;;;6152365;23;20021;-91
2022/10/26 03:48:46;;;;;;;34.95;13.27;;;;;;;;;;6126896;23;20048;-91
2022/10/26 03:51:12;;;;;;;26.52;12.40;;;;;;;;;;6127472;23;20044;-91
2022/10/26 03:53:45;;;;;;;30.83;14.10;;;;;;;;;;6124236;23;20041;-92
2022/10/26 03:56:11;;;;;;;35.10;14.23;;;;;;;;;;6123336;23;20579;-91
2022/10/26 03:58:37;;;;;;;31.35;13.05;;;;;;;;;;6125326;23;20010;-91
2022/10/26 04:01:08;;;;;;;29.92;15.27;;;;;;;;;;6149893;23;20326;-91
2022/10/26 04:03:35;;;;;;;32.08;14.57;;;;;;;;;;6149045;23;20029;-91
2022/10/26 04:06:01;;;;;;;31.40;14.65;;;;;;;;;;6124355;23;20341;-91
2022/10/26 04:08:28;;;;;;;38.92;16.48;;;;;;;;;;6149837;23;20017;-91
2022/10/26 04:10:56;;;;;;;42.63;16.67;;;;;;;;;;6149484;23;20288;-92
2022/10/26 04:13:22;;;;;;;37.85;14.52;;;;;;;;;;6125901;23;20021;-91
2022/10/26 04:15:49;;;;;;;38.60;16.25;;;;;;;;;;6125728;23;20010;-91
2022/10/26 04:18:15;;;;;;;38.42;16.17;;;;;;;;;;6149376;23;20382;-91
2022/10/26 04:20:41;;;;;;;39.53;16.73;;;;;;;;;;6150497;23;20005;-91
2022/10/26 04:23:10;;;;;;;37.78;16.38;;;;;;;;;;6150376;23;20010;-92
2022/10/26 04:25:36;;;;;;;40.63;15.73;;;;;;;;;;6148707;23;20006;-92
2022/10/26 04:28:04;;;;;;;42.92;16.17;;;;;;;;;;6124737;23;20044;-91
2022/10/26 04:30:30;;;;;;;36.22;15.95;;;;;;;;;;6151147;23;20100;-90
2022/10/26 04:32:56;;;;;;;31.40;14.85;;;;;;;;;;6126546;23;20500;-91
2022/10/26 04:35:22;;;;;;;33.35;15.27;;;;;;;;;;6151799;23;20009;-91
2022/10/26 04:37:49;;;;;;;34.30;15.27;;;;;;;;;;6128124;23;20097;-91
2022/10/26 04:40:15;;;;;;;37.10;15.38;;;;;;;;;;6127544;23;20013;-90
2022/10/26 04:42:42;;;;;;;29.23;14.23;;;;;;;;;;6126754;23;20009;-91
2022/10/26 04:45:15;;;;;;;37.00;14.52;;;;;;;;;;6152043;22;20017;-92
2022/10/26 04:47:58;;;;;;;34.80;15.23;;;;;;;;;;6181069;23;20341;-90
2022/10/26 04:50:27;;;;;;;33.72;14.48;;;;;;;;;;6181809;23;20353;-91
2022/10/26 04:52:53;;;;;;;44.95;16.63;;;;;;;;;;6181698;23;20100;-91
2022/10/26 04:55:19;;;;;;;38.35;15.80;;;;;;;;;;6155663;23;20013;-91
2022/10/26 04:57:45;;;;;;;34.70;15.57;;;;;;;;;;6156045;23;20091;-90
2022/10/26 05:00:11;;;;;;;34.47;14.77;;;;;;;;;;6154590;23;20012;-92
2022/10/26 05:02:37;;;;;;;39.63;15.68;;;;;;;;;;6156485;23;20009;-91
2022/10/26 05:05:04;;;;;;;51.35;17.02;;;;;;;;;;6156265;23;20016;-91
2022/10/26 05:07:30;;;;;;;43.47;15.00;;;;;;;;;;6183646;23;20009;-90
2022/10/26 05:09:56;;;;;;;40.28;16.60;;;;;;;;;;6158482;23;20068;-91
2022/10/26 05:12:22;;;;;;;38.65;15.45;;;;;;;;;;6158553;23;20059;-90
2022/10/26 05:14:48;;;;;;;36.03;16.13;;;;;;;;;;6184659;23;20143;-90
2022/10/26 05:17:14;;;;;;;40.95;17.13;;;;;;;;;;6158324;23;20016;-90
2022/10/26 05:19:40;;;;;;;39.88;16.83;;;;;;;;;;6160244;23;20012;-90
2022/10/26 05:22:06;;;;;;;39.22;16.27;;;;;;;;;;6163018;23;20016;-90
2022/10/26 05:24:32;;;;;;;37.50;17.05;;;;;;;;;;6190017;23;20015;-92
2022/10/26 05:26:59;;;;;;;36.67;16.52;;;;;;;;;;6189903;23;20425;-91
2022/10/26 05:29:28;;;;;;;33.25;15.73;;;;;;;;;;6191234;23;20028;-91
2022/10/26 05:31:54;;;;;;;35.40;15.68;;;;;;;;;;6171618;23;20023;-92
2022/10/26 05:34:20;;;;;;;40.05;15.43;;;;;;;;;;6168945;23;20012;-92
2022/10/26 05:36:46;;;;;;;46.25;17.65;;;;;;;;;;6165025;23;20035;-90
2022/10/26 05:39:12;;;;;;;39.90;16.42;;;;;;;;;;6159817;23;20013;-92
2022/10/26 05:41:38;;;;;;;40.03;16.67;;;;;;;;;;6158600;23;20325;-93
2022/10/26 05:44:04;;;;;;;41.40;17.17;;;;;;;;;;6157037;23;20039;-91
2022/10/26 05:46:30;;;;;;;40.10;15.73;;;;;;;;;;6133270;23;20088;-91
2022/10/26 05:48:56;;;;;;;51.10;17.50;;;;;;;;;;6126593;23;20349;-91
2022/10/26 05:51:22;;;;;;;40.03;17.02;;;;;;;;;;6127860;23;20028;-92
2022/10/26 05:53:53;;;;;;;42.83;17.70;;;;;;;;;;6126084;23;20023;-91
2022/10/26 05:56:20;;;;;;;44.80;16.77;;;;;;;;;;6150762;23;20100;-93
2022/10/26 05:58:47;;;;;;;40.05;16.00;;;;;;;;;;6125590;23;20005;-91
2022/10/26 06:01:33;;;;;;;37.67;16.35;;;;;;;;;;6127786;23;20009;-91
2022/10/26 06:04:18;;;;;;;36.22;15.38;;;;;;;;;;6148179;23;20009;-91
2022/10/26 06:06:45;;;;;;;35.42;15.93;;;;;;;;;;6150048;23;20056;-91
2022/10/26 06:09:16;;;;;;;39.17;15.68;;;;;;;;;;6151171;23;20010;-91
2022/10/26 06:11:42;;;;;;;37.65;15.90;;;;;;;;;;6151913;23;20041;-91
2022/10/26 06:14:14;;;;;;;37.20;15.68;;;;;;;;;;6126115;23;20017;-92
2022/10/26 06:16:56;;;;;;;36.90;16.73;;;;;;;;;;6127756;23;20005;-92
2022/10/26 06:19:48;;;;;;;40.92;15.40;;;;;;;;;;6150895;23;20088;-92
2022/10/26 06:22:32;;;;;;;30.77;13.50;;;;;;;;;;6097939;23;20009;-91
2022/10/26 06:25:18;;;;;;;33.33;15.02;;;;;;;;;;6149174;23;20437;-92
2022/10/26 06:28:03;;;;;;;26.23;13.15;;;;;;;;;;6130948;23;20092;-92
2022/10/26 06:30:30;;;;;;;34.50;14.38;;;;;;;;;;6151127;23;20088;-91
2022/10/26 06:32:58;;;;;;;38.38;14.80;;;;;;;;;;6150639;23;20013;-92
2022/10/26 06:35:30;;;;;;;38.92;14.43;;;;;;;;;;6151257;23;20444;-93
2022/10/26 06:38:04;;;;;;;27.58;12.77;;;;;;;;;;6151840;23;20005;-91
2022/10/26 06:40:32;;;;;;;30.27;12.50;;;;;;;;;;6150798;23;20006;-92
2022/10/26 06:42:58;;;;;;;31.15;13.57;;;;;;;;;;6152378;23;20006;-92
2022/10/26 06:45:32;;;;;;;33.67;13.55;;;;;;;;;;6145681;23;20115;-91
2022/10/26 06:48:08;;;;;;;28.00;13.23;;;;;;;;;;6184567;23;20004;-92
2022/10/26 06:50:44;;;;;;;32.45;13.05;;;;;;;;;;6185020;23;20225;-92
2022/10/26 06:53:33;;;;;;;33.25;13.57;;;;;;;;;;6183602;23;20515;-96
2022/10/26 06:55:59;;;;;;;32.30;12.95;;;;;;;;;;6186211;23;20009;-96
2022/10/26 06:58:28;;;;;;;24.52;12.20;;;;;;;;;;6186157;23;20008;-96
2022/10/26 07:00:55;;;;;;;26.58;13.30;;;;;;;;;;6185384;23;20066;-95
2022/10/26 07:03:21;;;;;;;26.98;12.85;;;;;;;;;;6187537;23;20035;-96
2022/10/26 07:05:47;;;;;;;28.33;12.48;;;;;;;;;;6187053;23;20005;-94
2022/10/26 07:08:14;;;;;;;29.65;13.73;;;;;;;;;;6187998;23;20431;-94
2022/10/26 07:10:41;;;;;;;28.83;12.25;;;;;;;;;;6162974;23;20039;-94
2022/10/26 07:13:12;;;;;;;35.25;13.02;;;;;;;;;;6187428;23;20491;-93
2022/10/26 07:15:38;;;;;;;31.70;11.70;;;;;;;;;;6188270;23;20448;-96
2022/10/26 07:18:05;;;;;;;29.25;12.18;;;;;;;;;;6163299;23;20008;-95
2022/10/26 07:20:32;;;;;;;27.08;10.52;;;;;;;;;;6163693;23;20013;-95
2022/10/26 07:22:58;;;;;;;24.75;11.55;;;;;;;;;;6161642;23;20013;-95
2022/10/26 07:25:25;;;;;;;28.38;10.10;;;;;;;;;;6162937;23;20036;-94
2022/10/26 07:27:51;;;;;;;21.45;10.20;;;;;;;;;;6188158;23;20012;-95
2022/10/26 07:30:18;;;;;;;21.25;10.60;;;;;;;;;;6185998;23;20008;-95
2022/10/26 07:32:44;;;;;;;21.48;10.55;;;;;;;;;;6187076;23;20459;-96
2022/10/26 07:35:14;;;;;;;24.77;10.13;;;;;;;;;;6158693;23;20012;-93
2022/10/26 07:37:44;;;;;;;19.45;9.73;;;;;;;;;;6157993;23;20013;-89
2022/10/26 07:40:13;;;;;;;22.60;9.30;;;;;;;;;;6208600;23;20379;-90
2022/10/26 07:42:39;;;;;;;23.58;9.88;;;;;;;;;;6184261;23;20095;-89
2022/10/26 07:45:06;;;;;;;26.20;9.93;;;;;;;;;;6185694;22;20008;-90
2022/10/26 07:47:41;;;;;;;19.65;9.70;;;;;;;;;;6122031;23;20104;-90
2022/10/26 07:50:16;;;;;;;17.85;8.45;;;;;;;;;;6128872;23;20429;-91
2022/10/26 07:52:53;;;;;;;18.17;9.20;;;;;;;;;;6129431;23;20429;-89
2022/10/26 07:55:23;;;;;;;18.05;8.90;;;;;;;;;;6153893;23;20017;-91
2022/10/26 07:57:53;;;;;;;21.35;9.50;;;;;;;;;;6129313;23;20113;-90
2022/10/26 08:00:28;;;;;;;21.75;7.93;;;;;;;;;;6152522;23;20080;-92
2022/10/26 08:02:55;;;;;;;17.13;8.63;;;;;;;;;;6151409;23;20040;-90
2022/10/26 08:05:24;;;;;;;18.77;9.43;;;;;;;;;;6151933;23;20024;-91
2022/10/26 08:07:51;;;;;;;20.83;8.30;;;;;;;;;;6153048;23;20029;-91
2022/10/26 08:10:17;;;;;;;18.05;8.70;;;;;;;;;;6151606;23;20399;-91
2022/10/26 08:12:43;;;;;;;15.80;8.40;;;;;;;;;;6129407;23;20044;-91
2022/10/26 08:15:10;;;;;;;17.50;7.70;;;;;;;;;;6125749;23;20012;-90
2022/10/26 08:17:46;;;;;;;17.67;8.20;;;;;;;;;;6151238;23;20018;-90
2022/10/26 08:20:12;;;;;;;19.02;8.40;;;;;;;;;;6127891;23;20013;-92
2022/10/26 08:22:41;;;;;;;17.33;7.60;;;;;;;;;;6127892;23;20025;-91
2022/10/26 08:25:08;;;;;;;20.65;8.13;;;;;;;;;;6125901;23;20270;-90
2022/10/26 08:27:34;;;;;;;15.70;7.72;;;;;;;;;;6151203;23;20495;-91
2022/10/26 08:30:09;;;;;;;18.73;7.40;;;;;;;;;;6151275;23;20014;-90
2022/10/26 08:32:35;;;;;;;21.80;7.22;;;;;;;;;;6130384;23;20061;-91
2022/10/26 08:35:02;;;;;;;18.70;8.85;;;;;;;;;;6127625;23;20434;-91
2022/10/26 08:37:28;;;;;;;22.15;8.80;;;;;;;;;;6127358;23;20024;-91
2022/10/26 08:39:54;;;;;;;14.65;6.57;;;;;;;;;;6125767;23;20017;-90
2022/10/26 08:42:26;;;;;;;14.98;6.63;;;;;;;;;;6128053;23;20096;-91
2022/10/26 08:44:57;;;;;;;11.88;5.68;;;;;;;;;;6154865;23;20013;-91
2022/10/26 08:47:42;;;;;;;17.92;5.80;;;;;;;;;;6163615;22;20025;-91
2022/10/26 08:50:43;;;;;;;11.65;5.65;;;;;;;;;;6151876;23;20047;-91
2022/10/26 08:53:17;;;;;;;14.63;4.80;;;;;;;;;;6154886;23;20010;-92
2022/10/26 08:55:53;;;;;;;12.80;5.35;;;;;;;;;;6154275;23;20060;-91
2022/10/26 08:58:22;;;;;;;8.80;4.57;;;;;;;;;;6154063;23;20005;-92
2022/10/26 09:00:50;;;;;;;7.95;4.82;;;;;;;;;;6153982;23;20016;-91
2022/10/26 09:03:17;;;;;;;10.07;4.82;;;;;;;;;;6153969;23;20009;-91
2022/10/26 09:05:49;;;;;;;6.90;4.18;;;;;;;;;;6131330;23;20013;-91
2022/10/26 09:08:35;;;;;;;17.73;5.22;;;;;;;;;;6157717;23;20013;-91
2022/10/26 09:11:08;;;;;;;7.43;4.78;;;;;;;;;;6156782;23;20041;-91
2022/10/26 09:13:50;;;;;;;10.05;4.65;;;;;;;;;;6156328;23;20009;-91
2022/10/26 09:16:19;;;;;;;8.63;5.03;;;;;;;;;;6152418;23;20482;-91
2022/10/26 09:19:00;;;;;;;5.57;4.00;;;;;;;;;;6156272;23;20028;-91
2022/10/26 09:21:27;;;;;;;10.90;5.10;;;;;;;;;;6157300;23;20008;-91
2022/10/26 09:23:57;;;;;;;7.72;4.18;;;;;;;;;;6159393;23;20025;-91
2022/10/26 09:26:29;;;;;;;10.90;3.80;;;;;;;;;;6160605;23;20009;-92
2022/10/26 09:28:59;;;;;;;7.22;4.63;;;;;;;;;;6162768;23;20013;-92
2022/10/26 09:31:29;;;;;;;8.20;4.40;;;;;;;;;;6164494;23;20048;-90
2022/10/26 09:34:11;;;;;;;8.40;3.00;;;;;;;;;;6167496;23;20024;-93
2022/10/26 09:36:38;;;;;;;7.75;4.60;;;;;;;;;;6171791;23;20010;-91
2022/10/26 09:39:12;;;;;;;9.85;4.20;;;;;;;;;;6163643;23;20010;-92
2022/10/26 09:41:46;;;;;;;7.25;4.15;;;;;;;;;;6165764;23;20012;-91
2022/10/26 09:44:31;;;;;;;6.80;4.03;;;;;;;;;;6167617;23;20010;-92
2022/10/26 09:47:14;;;;;;;6.32;4.55;;;;;;;;;;6169741;22;20017;-90
2022/10/26 09:49:40;;;;;;;10.65;4.45;;;;;;;;;;6161787;23;20041;-91
2022/10/26 09:52:13;;;;;;;8.55;4.93;;;;;;;;;;6158825;23;20013;-90
2022/10/26 09:54:39;;;;;;;10.82;4.75;;;;;;;;;;6158847;23;20257;-92
2022/10/26 09:57:06;;;;;;;6.85;3.90;;;;;;;;;;6134442;23;20017;-90
2022/10/26 09:59:34;;;;;;;8.65;4.05;;;;;;;;;;6132880;23;20069;-91
2022/10/26 10:02:00;;;;;;;6.32;4.50;;;;;;;;;;6157957;23;20009;-92
2022/10/26 10:04:34;;;;;;;3.67;3.22;;;;;;;;;;6134838;23;20264;-91
2022/10/26 10:07:00;;;;;;;5.78;3.42;;;;;;;;;;6131019;23;20099;-92
2022/10/26 10:09:35;;;;;;;9.98;3.47;;;;;;;;;;6156717;23;20029;-92
2022/10/26 10:12:17;;;;;;;3.40;3.10;;;;;;;;;;6155107;23;20012;-92
2022/10/26 10:14:58;;;;;;;6.72;3.75;;;;;;;;;;6155588;23;20024;-89
2022/10/26 10:17:27;;;;;;;6.45;3.45;;;;;;;;;;6156306;23;20014;-92
2022/10/26 10:19:57;;;;;;;5.18;2.30;;;;;;;;;;6130017;23;20009;-91
2022/10/26 10:22:29;;;;;;;9.25;2.70;;;;;;;;;;6129567;23;20398;-91
2022/10/26 10:25:02;;;;;;;7.38;3.08;;;;;;;;;;6154118;23;20006;-91
2022/10/26 10:27:30;;;;;;;6.32;2.92;;;;;;;;;;6154778;23;20005;-91
2022/10/26 10:29:57;;;;;;;5.22;2.63;;;;;;;;;;6154594;23;20009;-91
2022/10/26 10:32:30;;;;;;;8.02;2.25;;;;;;;;;;6153390;23;20341;-92
2022/10/26 10:35:00;;;;;;;7.80;2.78;;;;;;;;;;6155649;23;20028;-92
2022/10/26 10:37:34;;;;;;;8.95;2.10;;;;;;;;;;6151767;23;20013;-91
2022/10/26 10:40:16;;;;;;;7.78;2.63;;;;;;;;;;6151014;23;20008;-90
2022/10/26 10:42:46;;;;;;;9.45;2.17;;;;;;;;;;6152409;23;20001;-91
2022/10/26 10:45:18;;;;;;;12.52;2.58;;;;;;;;;;6151781;23;20338;-92
2022/10/26 10:48:04;;;;;;;6.32;2.35;;;;;;;;;;6159995;22;20413;-91
2022/10/26 10:50:30;;;;;;;6.13;2.78;;;;;;;;;;6149584;23;20021;-91
2022/10/26 10:53:18;;;;;;;8.70;2.30;;;;;;;;;;6125857;23;20006;-96
2022/10/26 10:55:51;;;;;;;5.75;2.50;;;;;;;;;;6153295;23;20013;-94
2022/10/26 10:58:23;;;;;;;5.65;2.53;;;;;;;;;;6155045;23;20232;-96
2022/10/26 11:00:50;;;;;;;16.90;2.03;;;;;;;;;;6152452;23;20006;-95
2022/10/26 11:03:42;;;;;;;2.45;1.90;;;;;;;;;;6130020;23;20006;-94
2022/10/26 11:06:19;;;;;;;8.27;2.65;;;;;;;;;;6141956;23;20005;-96
2022/10/26 11:08:49;;;;;;;9.20;1.98;;;;;;;;;;6152495;23;20292;-95
2022/10/26 11:11:18;;;;;;;5.03;2.20;;;;;;;;;;6152078;23;20013;-96
2022/10/26 11:14:01;;;;;;;6.82;2.70;;;;;;;;;;6150586;23;20093;-94
2022/10/26 11:17:06;;;;;;;3.40;2.40;;;;;;;;;;6151416;23;20013;-95
2022/10/26 11:19:57;;;;;;;5.43;2.85;;;;;;;;;;6069914;23;20010;-96
2022/10/26 11:22:37;;;;;;;3.80;2.47;;;;;;;;;;6092308;23;20337;-96
2022/10/26 11:25:07;;;;;;;14.02;3.33;;;;;;;;;;6154682;23;20020;-95
2022/10/26 11:27:38;;;;;;;6.50;2.67;;;;;;;;;;6155685;23;20133;-96
2022/10/26 11:30:33;;;;;;;11.70;3.00;;;;;;;;;;6152989;23;20020;-94
2022/10/26 11:33:02;;;;;;;9.68;2.60;;;;;;;;;;6157296;23;20492;-95
2022/10/26 11:35:30;;;;;;;5.30;2.90;;;;;;;;;;6155046;23;20031;-96
2022/10/26 11:38:05;;;;;;;6.95;3.03;;;;;;;;;;6155012;23;20012;-94
2022/10/26 11:40:47;;;;;;;6.20;2.47;;;;;;;;;;6147501;23;20016;-95
2022/10/26 11:43:29;;;;;;;8.00;3.28;;;;;;;;;;6153658;23;20013;-96
2022/10/26 11:46:14;;;;;;;10.93;3.20;;;;;;;;;;6156847;23;20036;-94
2022/10/26 11:48:44;;;;;;;8.23;2.83;;;;;;;;;;6160311;22;20017;-96
2022/10/26 11:51:29;;;;;;;11.60;3.17;;;;;;;;;;6154796;23;20016;-95
2022/10/26 11:53:59;;;;;;;8.25;3.45;;;;;;;;;;6156766;23;20262;-96
2022/10/26 11:56:44;;;;;;;4.72;3.08;;;;;;;;;;6156393;23;20376;-96
2022/10/26 11:59:28;;;;;;;6.78;3.13;;;;;;;;;;6155778;23;20006;-96
2022/10/26 12:01:56;;;;;;;6.45;2.85;;;;;;;;;;6155971;23;20430;-95
2022/10/26 12:04:25;;;;;;;10.02;3.30;;;;;;;;;;6154984;23;20014;-96
2022/10/26 12:06:54;;;;;;;6.32;2.53;;;;;;;;;;6157569;23;20009;-95
2022/10/26 12:09:22;;;;;;;4.25;2.50;;;;;;;;;;6157547;23;20010;-96
2022/10/26 12:12:04;;;;;;;8.95;2.85;;;;;;;;;;6159452;23;20019;-96
2022/10/26 12:15:07;;;;;;;5.22;2.78;;;;;;;;;;6132566;23;20104;-96
2022/10/26 12:17:43;;;;;;;4.57;2.33;;;;;;;;;;6157244;23;20013;-96
2022/10/26 12:20:15;;;;;;;6.28;2.50;;;;;;;;;;6153422;23;20006;-96
2022/10/26 12:22:42;;;;;;;8.93;3.50;;;;;;;;;;6153137;23;20338;-96
2022/10/26 12:25:14;;;;;;;8.25;2.63;;;;;;;;;;6154795;23;20076;-96
2022/10/26 12:27:40;;;;;;;7.22;2.47;;;;;;;;;;6153424;23;20010;-96
2022/10/26 12:33:02;;;;;;;10.05;2.40;;;;;;;;;;6095521;23;20016;-94
2022/10/26 12:35:43;;;;;;;11.02;2.72;;;;;;;;;;6132815;23;20009;-96
2022/10/26 12:38:28;;;;;;;5.63;2.40;;;;;;;;;;6154837;23;20092;-96
2022/10/26 12:41:18;;;;;;;9.95;2.97;;;;;;;;;;6153626;23;20002;-95
2022/10/26 12:43:44;;;;;;;4.15;2.08;;;;;;;;;;6153145;23;20013;-95
2022/10/26 12:46:16;;;;;;;6.82;2.88;;;;;;;;;;6158727;23;20522;-96
2022/10/26 12:48:49;;;;;;;6.47;3.13;;;;;;;;;;6155061;22;20017;-96
2022/10/26 12:51:42;;;;;;;4.88;2.35;;;;;;;;;;6153500;23;20010;-96
2022/10/26 12:55:08;;;;;;;5.05;2.50;;;;;;;;;;6157205;23;20153;-96
2022/10/26 12:57:30;;;;;;;7.68;2.53;;;;;;;;;;6152290;23;20021;-96
2022/10/26 13:00:12;;;;;;;20.63;4.75;;;;;;;;;;6155333;23;20009;-95
2022/10/26 13:02:38;;;;;;;4.97;3.15;;;;;;;;;;6154224;23;20497;-96
2022/10/26 13:05:20;;;;;;;7.00;3.00;;;;;;;;;;6151760;23;20496;-95
2022/10/26 13:07:46;;;;;;;8.85;3.20;;;;;;;;;;6153778;23;20039;-94
2022/10/26 13:10:15;;;;;;;11.20;3.63;;;;;;;;;;6129798;23;20017;-95
2022/10/26 13:13:32;;;;;;;7.70;3.38;;;;;;;;;;6154332;23;20016;-95
2022/10/26 13:15:58;;;;;;;8.25;3.08;;;;;;;;;;6154361;23;20006;-95
2022/10/26 13:18:25;;;;;;;11.27;3.38;;;;;;;;;;6153653;23;20005;-96
2022/10/26 13:21:12;;;;;;;9.82;3.42;;;;;;;;;;6154658;23;20009;-94
2022/10/26 13:24:04;;;;;;;7.07;3.03;;;;;;;;;;6155030;23;20482;-96
2022/10/26 13:26:31;;;;;;;11.15;3.35;;;;;;;;;;6156180;23;20404;-95
2022/10/26 13:28:59;;;;;;;6.00;3.05;;;;;;;;;;6153388;23;20430;-96
2022/10/26 13:31:31;;;;;;;9.95;3.78;;;;;;;;;;6156472;23;20073;-96
2022/10/26 13:34:03;;;;;;;12.18;3.50;;;;;;;;;;6156195;23;20084;-96
2022/10/26 13:36:36;;;;;;;10.27;3.58;;;;;;;;;;6160907;23;20010;-96
2022/10/26 13:39:06;;;;;;;11.27;3.40;;;;;;;;;;6160208;23;20337;-95
2022/10/26 13:41:33;;;;;;;16.08;3.50;;;;;;;;;;6160215;23;20053;-96
2022/10/26 13:44:24;;;;;;;14.05;4.97;;;;;;;;;;6159637;23;20484;-95
2022/10/26 13:46:52;;;;;;;13.20;3.20;;;;;;;;;;6171115;22;20090;-95
2022/10/26 13:49:21;;;;;;;10.10;3.63;;;;;;;;;;6225320;23;20062;-93
2022/10/26 13:51:49;;;;;;;16.83;3.47;;;;;;;;;;6223116;23;20059;-93
2022/10/26 13:54:31;;;;;;;12.25;4.00;;;;;;;;;;6224567;23;20050;-95
2022/10/26 13:57:01;;;;;;;9.75;3.80;;;;;;;;;;6222476;23;20070;-94
2022/10/26 13:59:28;;;;;;;9.02;4.57;;;;;;;;;;6223792;23;20040;-94
2022/10/26 14:02:08;;;;;;;12.10;4.70;;;;;;;;;;6224424;23;20482;-96
2022/10/26 14:04:34;;;;;;;10.45;4.43;;;;;;;;;;6223884;23;20009;-94
2022/10/26 14:07:00;;;;;;;8.00;4.32;;;;;;;;;;6201168;23;20009;-94
2022/10/26 14:09:29;;;;;;;8.20;3.97;;;;;;;;;;6204515;23;20008;-94
2022/10/26 14:11:57;;;;;;;8.02;4.45;;;;;;;;;;6228012;23;20012;-93
2022/10/26 14:14:29;;;;;;;10.77;4.72;;;;;;;;;;6227819;23;20071;-94
2022/10/26 14:16:55;;;;;;;11.02;4.80;;;;;;;;;;6225936;23;20007;-94
2022/10/26 14:19:24;;;;;;;13.13;4.80;;;;;;;;;;6227486;23;20103;-95
2022/10/26 14:21:51;;;;;;;12.95;4.68;;;;;;;;;;6223483;23;20018;-96
2022/10/26 14:24:43;;;;;;;13.93;4.88;;;;;;;;;;6196160;23;20388;-96
2022/10/26 14:27:16;;;;;;;17.80;4.50;;;;;;;;;;6187726;23;20071;-94
2022/10/26 14:29:43;;;;;;;9.75;4.60;;;;;;;;;;6218803;23;20016;-95
2022/10/26 14:32:28;;;;;;;9.38;4.05;;;;;;;;;;6193108;23;20028;-96
2022/10/26 14:34:54;;;;;;;10.68;4.78;;;;;;;;;;6218810;23;20012;-95
2022/10/26 14:37:35;;;;;;;9.23;3.90;;;;;;;;;;6215845;23;20009;-96
2022/10/26 14:40:02;;;;;;;9.48;4.18;;;;;;;;;;6217597;23;20380;-95
2022/10/26 14:42:30;;;;;;;10.57;3.97;;;;;;;;;;6216377;23;20009;-94
2022/10/26 14:44:57;;;;;;;8.50;3.88;;;;;;;;;;6217086;23;20034;-95
2022/10/26 14:47:37;;;;;;;7.20;4.00;;;;;;;;;;6218342;22;20011;-95
2022/10/26 14:50:04;;;;;;;13.68;4.35;;;;;;;;;;6215264;23;20024;-96
2022/10/26 14:52:33;;;;;;;11.00;4.88;;;;;;;;;;6190198;23;20027;-95
2022/10/26 14:55:15;;;;;;;13.15;5.25;;;;;;;;;;6215105;23;20373;-95
2022/10/26 14:57:42;;;;;;;11.80;4.85;;;;;;;;;;6213725;23;20489;-96